sensor_id;sensor_type;location;lat;lon;timestamp;P1;durP1;ratioP1;P2;durP2;ratioP2
48881;SDS011;57063;51.406;-2.402;2023-07-20T00:00:46;2.05;;;1.02;;
48881;SDS011;57063;51.406;-2.402;2023-07-20T00:03:12;1.88;;;1.20;;
48881;SDS011;57063;51.406;-2.402;2023-07-20T00:05:42;2.15;;;1.20;;
48881;SDS011;57063;51.406;-2.402;2023-07-20T00:08:08;5.45;;;1.17;;
48881;SDS011;57063;51.406;-2.402;2023-07-20T00:10:34;2.38;;;1.25;;
48881;SDS011;57063;51.406;-2.402;2023-07-20T00:12:59;1.92;;;1.13;;
48881;SDS011;57063;51.406;-2.402;2023-07-20T00:15:24;1.85;;;1.23;;
48881;SDS011;57063;51.406;-2.402;2023-07-20T00:17:50;2.00;;;1.08;;
48881;SDS011;57063;51.406;-2.402;2023-07-20T00:20:15;2.90;;;1.63;;
48881;SDS011;57063;51.406;-2.402;2023-07-20T00:22:41;1.98;;;1.42;;
48881;SDS011;57063;51.406;-2.402;2023-07-20T00:25:06;2.33;;;1.58;;
48881;SDS011;57063;51.406;-2.402;2023-07-20T00:27:32;2.08;;;1.15;;
48881;SDS011;57063;51.406;-2.402;2023-07-20T00:29:57;3.20;;;1.30;;
48881;SDS011;57063;51.406;-2.402;2023-07-20T00:32:22;2.40;;;1.20;;
48881;SDS011;57063;51.406;-2.402;2023-07-20T00:34:48;1.85;;;1.35;;
48881;SDS011;57063;51.406;-2.402;2023-07-20T00:37:13;3.90;;;1.30;;
48881;SDS011;57063;51.406;-2.402;2023-07-20T00:39:38;1.77;;;1.20;;
48881;SDS011;57063;51.406;-2.402;2023-07-20T00:42:04;2.45;;;1.48;;
48881;SDS011;57063;51.406;-2.402;2023-07-20T00:44:30;1.52;;;1.08;;
48881;SDS011;57063;51.406;-2.402;2023-07-20T00:46:55;4.43;;;1.08;;
48881;SDS011;57063;51.406;-2.402;2023-07-20T00:49:21;1.83;;;1.15;;
48881;SDS011;57063;51.406;-2.402;2023-07-20T00:51:47;2.00;;;1.02;;
48881;SDS011;57063;51.406;-2.402;2023-07-20T00:54:14;2.92;;;0.82;;
48881;SDS011;57063;51.406;-2.402;2023-07-20T00:56:40;1.98;;;0.93;;
48881;SDS011;57063;51.406;-2.402;2023-07-20T00:59:05;2.58;;;1.20;;
48881;SDS011;57063;51.406;-2.402;2023-07-20T01:01:30;3.95;;;0.93;;
48881;SDS011;57063;51.406;-2.402;2023-07-20T01:03:56;3.30;;;0.82;;
48881;SDS011;57063;51.406;-2.402;2023-07-20T01:06:26;1.65;;;1.05;;
48881;SDS011;57063;51.406;-2.402;2023-07-20T01:09:13;1.77;;;1.10;;
48881;SDS011;57063;51.406;-2.402;2023-07-20T01:14:23;1.98;;;1.25;;
48881;SDS011;57063;51.406;-2.402;2023-07-20T01:16:50;1.50;;;1.05;;
48881;SDS011;57063;51.406;-2.402;2023-07-20T01:19:17;1.85;;;1.20;;
48881;SDS011;57063;51.406;-2.402;2023-07-20T01:24:50;2.58;;;1.30;;
48881;SDS011;57063;51.406;-2.402;2023-07-20T01:27:57;1.77;;;0.80;;
48881;SDS011;57063;51.406;-2.402;2023-07-20T01:30:43;2.58;;;1.10;;
48881;SDS011;57063;51.406;-2.402;2023-07-20T01:33:17;1.70;;;1.13;;
48881;SDS011;57063;51.406;-2.402;2023-07-20T01:35:45;1.10;;;0.88;;
48881;SDS011;57063;51.406;-2.402;2023-07-20T01:38:13;6.93;;;1.15;;
48881;SDS011;57063;51.406;-2.402;2023-07-20T01:40:39;3.55;;;1.88;;
48881;SDS011;57063;51.406;-2.402;2023-07-20T01:43:05;6.97;;;2.10;;
48881;SDS011;57063;51.406;-2.402;2023-07-20T01:45:31;3.63;;;1.60;;
48881;SDS011;57063;51.406;-2.402;2023-07-20T01:47:56;3.88;;;1.40;;
48881;SDS011;57063;51.406;-2.402;2023-07-20T01:50:22;2.17;;;1.00;;
48881;SDS011;57063;51.406;-2.402;2023-07-20T01:52:47;2.60;;;1.55;;
48881;SDS011;57063;51.406;-2.402;2023-07-20T01:55:13;2.22;;;1.10;;
48881;SDS011;57063;51.406;-2.402;2023-07-20T01:57:38;4.13;;;1.30;;
48881;SDS011;57063;51.406;-2.402;2023-07-20T02:00:04;1.85;;;0.90;;
48881;SDS011;57063;51.406;-2.402;2023-07-20T02:02:29;7.78;;;1.23;;
48881;SDS011;57063;51.406;-2.402;2023-07-20T02:04:55;2.58;;;0.80;;
48881;SDS011;57063;51.406;-2.402;2023-07-20T02:07:20;3.13;;;1.30;;
48881;SDS011;57063;51.406;-2.402;2023-07-20T02:09:45;1.98;;;1.05;;
48881;SDS011;57063;51.406;-2.402;2023-07-20T02:12:11;2.33;;;1.00;;
48881;SDS011;57063;51.406;-2.402;2023-07-20T02:14:36;1.30;;;1.00;;
48881;SDS011;57063;51.406;-2.402;2023-07-20T02:17:01;2.45;;;1.10;;
48881;SDS011;57063;51.406;-2.402;2023-07-20T02:19:28;1.23;;;0.90;;
48881;SDS011;57063;51.406;-2.402;2023-07-20T02:21:54;0.73;;;0.63;;
48881;SDS011;57063;51.406;-2.402;2023-07-20T02:24:20;4.10;;;1.55;;
48881;SDS011;57063;51.406;-2.402;2023-07-20T02:26:45;2.78;;;1.02;;
48881;SDS011;57063;51.406;-2.402;2023-07-20T02:29:10;3.03;;;1.30;;
48881;SDS011;57063;51.406;-2.402;2023-07-20T02:31:39;2.42;;;1.10;;
48881;SDS011;57063;51.406;-2.402;2023-07-20T02:34:07;3.92;;;1.38;;
48881;SDS011;57063;51.406;-2.402;2023-07-20T02:36:33;2.75;;;1.10;;
48881;SDS011;57063;51.406;-2.402;2023-07-20T02:38:59;1.67;;;1.08;;
48881;SDS011;57063;51.406;-2.402;2023-07-20T02:41:25;1.35;;;0.95;;
48881;SDS011;57063;51.406;-2.402;2023-07-20T02:43:50;2.45;;;1.05;;
48881;SDS011;57063;51.406;-2.402;2023-07-20T02:46:16;2.22;;;1.17;;
48881;SDS011;57063;51.406;-2.402;2023-07-20T02:48:41;3.28;;;1.08;;
48881;SDS011;57063;51.406;-2.402;2023-07-20T02:51:06;3.13;;;1.17;;
48881;SDS011;57063;51.406;-2.402;2023-07-20T02:53:32;2.75;;;1.10;;
48881;SDS011;57063;51.406;-2.402;2023-07-20T02:55:58;2.22;;;1.27;;
48881;SDS011;57063;51.406;-2.402;2023-07-20T02:58:23;1.60;;;1.33;;
48881;SDS011;57063;51.406;-2.402;2023-07-20T03:00:49;1.38;;;1.17;;
48881;SDS011;57063;51.406;-2.402;2023-07-20T03:03:14;3.47;;;2.33;;
48881;SDS011;57063;51.406;-2.402;2023-07-20T03:05:40;1.60;;;1.20;;
48881;SDS011;57063;51.406;-2.402;2023-07-20T03:08:06;8.07;;;1.80;;
48881;SDS011;57063;51.406;-2.402;2023-07-20T03:10:31;2.10;;;1.15;;
48881;SDS011;57063;51.406;-2.402;2023-07-20T03:12:57;1.70;;;1.30;;
48881;SDS011;57063;51.406;-2.402;2023-07-20T03:15:23;1.88;;;1.20;;
48881;SDS011;57063;51.406;-2.402;2023-07-20T03:17:48;1.80;;;1.23;;
48881;SDS011;57063;51.406;-2.402;2023-07-20T03:20:14;2.30;;;1.20;;
48881;SDS011;57063;51.406;-2.402;2023-07-20T03:22:39;2.50;;;1.20;;
48881;SDS011;57063;51.406;-2.402;2023-07-20T03:25:05;1.45;;;1.00;;
48881;SDS011;57063;51.406;-2.402;2023-07-20T03:27:30;1.48;;;1.00;;
48881;SDS011;57063;51.406;-2.402;2023-07-20T03:29:56;1.65;;;1.08;;
48881;SDS011;57063;51.406;-2.402;2023-07-20T03:32:21;4.07;;;1.15;;
48881;SDS011;57063;51.406;-2.402;2023-07-20T03:34:46;1.35;;;0.80;;
48881;SDS011;57063;51.406;-2.402;2023-07-20T03:37:12;1.15;;;1.02;;
48881;SDS011;57063;51.406;-2.402;2023-07-20T03:39:38;2.17;;;1.00;;
48881;SDS011;57063;51.406;-2.402;2023-07-20T03:42:03;2.90;;;1.35;;
48881;SDS011;57063;51.406;-2.402;2023-07-20T03:44:29;1.63;;;1.17;;
48881;SDS011;57063;51.406;-2.402;2023-07-20T03:46:55;3.67;;;1.08;;
48881;SDS011;57063;51.406;-2.402;2023-07-20T03:49:20;1.50;;;1.10;;
48881;SDS011;57063;51.406;-2.402;2023-07-20T03:51:46;1.55;;;0.98;;
48881;SDS011;57063;51.406;-2.402;2023-07-20T03:54:11;1.40;;;1.10;;
48881;SDS011;57063;51.406;-2.402;2023-07-20T03:56:36;1.48;;;1.10;;
48881;SDS011;57063;51.406;-2.402;2023-07-20T03:59:02;3.70;;;1.20;;
48881;SDS011;57063;51.406;-2.402;2023-07-20T04:01:27;1.50;;;1.10;;
48881;SDS011;57063;51.406;-2.402;2023-07-20T04:03:53;2.35;;;1.20;;
48881;SDS011;57063;51.406;-2.402;2023-07-20T04:06:18;3.70;;;1.60;;
48881;SDS011;57063;51.406;-2.402;2023-07-20T04:08:44;1.65;;;1.30;;
48881;SDS011;57063;51.406;-2.402;2023-07-20T04:11:09;1.73;;;1.05;;
48881;SDS011;57063;51.406;-2.402;2023-07-20T04:13:35;3.03;;;1.40;;
48881;SDS011;57063;51.406;-2.402;2023-07-20T04:16:00;3.08;;;1.63;;
48881;SDS011;57063;51.406;-2.402;2023-07-20T04:18:27;3.80;;;1.25;;
48881;SDS011;57063;51.406;-2.402;2023-07-20T04:20:53;2.25;;;1.25;;
48881;SDS011;57063;51.406;-2.402;2023-07-20T04:23:18;1.75;;;1.38;;
48881;SDS011;57063;51.406;-2.402;2023-07-20T04:25:43;1.48;;;1.23;;
48881;SDS011;57063;51.406;-2.402;2023-07-20T04:28:09;2.25;;;1.30;;
48881;SDS011;57063;51.406;-2.402;2023-07-20T04:30:35;2.85;;;1.35;;
48881;SDS011;57063;51.406;-2.402;2023-07-20T04:33:04;1.73;;;1.33;;
48881;SDS011;57063;51.406;-2.402;2023-07-20T04:36:03;2.63;;;1.30;;
48881;SDS011;57063;51.406;-2.402;2023-07-20T04:38:21;1.58;;;1.35;;
48881;SDS011;57063;51.406;-2.402;2023-07-20T04:40:47;1.77;;;1.38;;
48881;SDS011;57063;51.406;-2.402;2023-07-20T04:43:14;1.98;;;1.40;;
48881;SDS011;57063;51.406;-2.402;2023-07-20T04:45:40;2.58;;;1.48;;
48881;SDS011;57063;51.406;-2.402;2023-07-20T04:48:12;2.67;;;1.50;;
48881;SDS011;57063;51.406;-2.402;2023-07-20T04:50:42;3.22;;;1.50;;
48881;SDS011;57063;51.406;-2.402;2023-07-20T04:53:10;3.72;;;1.73;;
48881;SDS011;57063;51.406;-2.402;2023-07-20T04:55:36;2.60;;;1.50;;
48881;SDS011;57063;51.406;-2.402;2023-07-20T04:58:02;2.60;;;2.13;;
48881;SDS011;57063;51.406;-2.402;2023-07-20T05:00:29;2.70;;;1.55;;
48881;SDS011;57063;51.406;-2.402;2023-07-20T05:02:55;1.80;;;1.30;;
48881;SDS011;57063;51.406;-2.402;2023-07-20T05:05:21;1.60;;;1.50;;
48881;SDS011;57063;51.406;-2.402;2023-07-20T05:07:47;2.20;;;1.90;;
48881;SDS011;57063;51.406;-2.402;2023-07-20T05:10:12;3.47;;;1.40;;
48881;SDS011;57063;51.406;-2.402;2023-07-20T05:12:37;1.10;;;1.00;;
48881;SDS011;57063;51.406;-2.402;2023-07-20T05:15:03;2.63;;;1.60;;
48881;SDS011;57063;51.406;-2.402;2023-07-20T05:17:29;4.20;;;1.48;;
48881;SDS011;57063;51.406;-2.402;2023-07-20T05:19:54;2.85;;;1.45;;
48881;SDS011;57063;51.406;-2.402;2023-07-20T05:22:20;2.33;;;1.55;;
48881;SDS011;57063;51.406;-2.402;2023-07-20T05:24:45;4.95;;;1.80;;
48881;SDS011;57063;51.406;-2.402;2023-07-20T05:27:10;2.03;;;1.42;;
48881;SDS011;57063;51.406;-2.402;2023-07-20T05:29:36;2.53;;;1.60;;
48881;SDS011;57063;51.406;-2.402;2023-07-20T05:32:01;3.25;;;2.08;;
48881;SDS011;57063;51.406;-2.402;2023-07-20T05:34:27;3.38;;;1.95;;
48881;SDS011;57063;51.406;-2.402;2023-07-20T05:36:53;1.92;;;1.33;;
48881;SDS011;57063;51.406;-2.402;2023-07-20T05:39:18;2.22;;;1.50;;
48881;SDS011;57063;51.406;-2.402;2023-07-20T05:41:44;2.28;;;1.48;;
48881;SDS011;57063;51.406;-2.402;2023-07-20T05:44:09;2.25;;;1.48;;
48881;SDS011;57063;51.406;-2.402;2023-07-20T05:46:35;2.20;;;1.73;;
48881;SDS011;57063;51.406;-2.402;2023-07-20T05:49:00;2.58;;;1.35;;
48881;SDS011;57063;51.406;-2.402;2023-07-20T05:51:26;1.45;;;1.35;;
48881;SDS011;57063;51.406;-2.402;2023-07-20T05:53:52;1.67;;;1.25;;
48881;SDS011;57063;51.406;-2.402;2023-07-20T05:56:17;2.33;;;1.40;;
48881;SDS011;57063;51.406;-2.402;2023-07-20T05:58:42;2.15;;;1.80;;
48881;SDS011;57063;51.406;-2.402;2023-07-20T06:01:08;2.42;;;1.73;;
48881;SDS011;57063;51.406;-2.402;2023-07-20T06:03:34;4.07;;;1.42;;
48881;SDS011;57063;51.406;-2.402;2023-07-20T06:06:03;3.17;;;1.73;;
48881;SDS011;57063;51.406;-2.402;2023-07-20T06:10:56;4.30;;;3.05;;
48881;SDS011;57063;51.406;-2.402;2023-07-20T06:13:22;4.85;;;2.72;;
48881;SDS011;57063;51.406;-2.402;2023-07-20T06:15:48;4.05;;;2.90;;
48881;SDS011;57063;51.406;-2.402;2023-07-20T06:18:14;4.43;;;2.97;;
48881;SDS011;57063;51.406;-2.402;2023-07-20T06:20:39;4.78;;;3.10;;
48881;SDS011;57063;51.406;-2.402;2023-07-20T06:23:05;3.95;;;2.20;;
48881;SDS011;57063;51.406;-2.402;2023-07-20T06:25:30;6.57;;;2.70;;
48881;SDS011;57063;51.406;-2.402;2023-07-20T06:27:56;5.30;;;2.17;;
48881;SDS011;57063;51.406;-2.402;2023-07-20T06:30:21;3.88;;;2.00;;
48881;SDS011;57063;51.406;-2.402;2023-07-20T06:32:47;5.13;;;1.85;;
48881;SDS011;57063;51.406;-2.402;2023-07-20T06:35:13;5.53;;;2.00;;
48881;SDS011;57063;51.406;-2.402;2023-07-20T06:37:39;1.48;;;1.05;;
48881;SDS011;57063;51.406;-2.402;2023-07-20T06:40:05;2.55;;;1.20;;
48881;SDS011;57063;51.406;-2.402;2023-07-20T06:42:31;2.08;;;1.27;;
48881;SDS011;57063;51.406;-2.402;2023-07-20T06:44:57;4.28;;;1.63;;
48881;SDS011;57063;51.406;-2.402;2023-07-20T06:47:23;2.40;;;1.45;;
48881;SDS011;57063;51.406;-2.402;2023-07-20T06:49:48;3.00;;;1.23;;
48881;SDS011;57063;51.406;-2.402;2023-07-20T06:52:14;3.85;;;1.42;;
48881;SDS011;57063;51.406;-2.402;2023-07-20T06:54:40;1.83;;;1.38;;
48881;SDS011;57063;51.406;-2.402;2023-07-20T06:57:05;4.25;;;1.67;;
48881;SDS011;57063;51.406;-2.402;2023-07-20T06:59:30;4.07;;;1.58;;
48881;SDS011;57063;51.406;-2.402;2023-07-20T07:01:56;2.92;;;1.73;;
48881;SDS011;57063;51.406;-2.402;2023-07-20T07:04:21;3.17;;;1.73;;
48881;SDS011;57063;51.406;-2.402;2023-07-20T07:06:47;1.98;;;1.30;;
48881;SDS011;57063;51.406;-2.402;2023-07-20T07:09:13;2.42;;;1.48;;
48881;SDS011;57063;51.406;-2.402;2023-07-20T07:11:38;2.08;;;1.35;;
48881;SDS011;57063;51.406;-2.402;2023-07-20T07:14:04;4.72;;;1.30;;
48881;SDS011;57063;51.406;-2.402;2023-07-20T07:16:29;2.13;;;1.60;;
48881;SDS011;57063;51.406;-2.402;2023-07-20T07:18:55;2.17;;;1.30;;
48881;SDS011;57063;51.406;-2.402;2023-07-20T07:21:20;5.78;;;2.38;;
48881;SDS011;57063;51.406;-2.402;2023-07-20T07:23:46;5.22;;;1.40;;
48881;SDS011;57063;51.406;-2.402;2023-07-20T07:26:12;2.78;;;1.40;;
48881;SDS011;57063;51.406;-2.402;2023-07-20T07:28:37;2.55;;;1.00;;
48881;SDS011;57063;51.406;-2.402;2023-07-20T07:31:06;3.03;;;1.02;;
48881;SDS011;57063;51.406;-2.402;2023-07-20T07:33:32;1.60;;;1.02;;
48881;SDS011;57063;51.406;-2.402;2023-07-20T07:35:57;2.22;;;1.02;;
48881;SDS011;57063;51.406;-2.402;2023-07-20T07:38:23;1.63;;;0.82;;
48881;SDS011;57063;51.406;-2.402;2023-07-20T07:40:48;8.00;;;1.27;;
48881;SDS011;57063;51.406;-2.402;2023-07-20T07:43:14;1.30;;;0.90;;
48881;SDS011;57063;51.406;-2.402;2023-07-20T07:45:39;4.30;;;1.08;;
48881;SDS011;57063;51.406;-2.402;2023-07-20T07:48:05;2.80;;;1.00;;
48881;SDS011;57063;51.406;-2.402;2023-07-20T07:50:32;2.60;;;1.20;;
48881;SDS011;57063;51.406;-2.402;2023-07-20T07:52:57;1.63;;;0.80;;
48881;SDS011;57063;51.406;-2.402;2023-07-20T07:55:23;1.65;;;0.80;;
48881;SDS011;57063;51.406;-2.402;2023-07-20T07:57:49;1.30;;;0.80;;
48881;SDS011;57063;51.406;-2.402;2023-07-20T08:00:15;2.38;;;1.10;;
48881;SDS011;57063;51.406;-2.402;2023-07-20T08:02:43;2.25;;;0.90;;
48881;SDS011;57063;51.406;-2.402;2023-07-20T08:05:09;1.88;;;0.80;;
48881;SDS011;57063;51.406;-2.402;2023-07-20T08:07:35;0.75;;;0.50;;
48881;SDS011;57063;51.406;-2.402;2023-07-20T08:10:01;2.92;;;0.70;;
48881;SDS011;57063;51.406;-2.402;2023-07-20T08:12:26;1.13;;;0.70;;
48881;SDS011;57063;51.406;-2.402;2023-07-20T08:14:52;1.95;;;0.60;;
48881;SDS011;57063;51.406;-2.402;2023-07-20T08:17:17;2.85;;;0.95;;
48881;SDS011;57063;51.406;-2.402;2023-07-20T08:19:43;1.55;;;0.70;;
48881;SDS011;57063;51.406;-2.402;2023-07-20T08:22:09;1.50;;;0.75;;
48881;SDS011;57063;51.406;-2.402;2023-07-20T08:24:35;1.17;;;0.55;;
48881;SDS011;57063;51.406;-2.402;2023-07-20T08:27:04;2.63;;;0.82;;
48881;SDS011;57063;51.406;-2.402;2023-07-20T08:29:29;2.17;;;0.90;;
48881;SDS011;57063;51.406;-2.402;2023-07-20T08:31:55;2.85;;;1.05;;
48881;SDS011;57063;51.406;-2.402;2023-07-20T08:34:20;2.03;;;0.70;;
48881;SDS011;57063;51.406;-2.402;2023-07-20T08:36:45;1.48;;;0.65;;
48881;SDS011;57063;51.406;-2.402;2023-07-20T08:39:11;1.88;;;0.77;;
48881;SDS011;57063;51.406;-2.402;2023-07-20T08:41:36;6.53;;;0.70;;
48881;SDS011;57063;51.406;-2.402;2023-07-20T08:44:02;2.70;;;0.82;;
48881;SDS011;57063;51.406;-2.402;2023-07-20T08:46:27;3.80;;;0.98;;
48881;SDS011;57063;51.406;-2.402;2023-07-20T08:48:54;0.90;;;0.60;;
48881;SDS011;57063;51.406;-2.402;2023-07-20T08:51:21;1.10;;;0.60;;
48881;SDS011;57063;51.406;-2.402;2023-07-20T08:53:47;1.63;;;0.50;;
48881;SDS011;57063;51.406;-2.402;2023-07-20T08:56:16;1.20;;;0.65;;
48881;SDS011;57063;51.406;-2.402;2023-07-20T08:58:42;1.70;;;0.50;;
48881;SDS011;57063;51.406;-2.402;2023-07-20T09:01:08;1.52;;;0.70;;
48881;SDS011;57063;51.406;-2.402;2023-07-20T09:03:36;2.03;;;0.57;;
48881;SDS011;57063;51.406;-2.402;2023-07-20T09:06:04;2.40;;;0.60;;
48881;SDS011;57063;51.406;-2.402;2023-07-20T09:08:30;1.42;;;0.50;;
48881;SDS011;57063;51.406;-2.402;2023-07-20T09:10:56;3.05;;;1.52;;
48881;SDS011;57063;51.406;-2.402;2023-07-20T09:13:21;0.75;;;0.57;;
48881;SDS011;57063;51.406;-2.402;2023-07-20T09:15:47;3.55;;;0.75;;
48881;SDS011;57063;51.406;-2.402;2023-07-20T09:18:26;1.98;;;0.60;;
48881;SDS011;57063;51.406;-2.402;2023-07-20T09:21:24;1.30;;;0.60;;
48881;SDS011;57063;51.406;-2.402;2023-07-20T09:23:58;2.42;;;0.50;;
48881;SDS011;57063;51.406;-2.402;2023-07-20T09:26:25;3.70;;;1.05;;
48881;SDS011;57063;51.406;-2.402;2023-07-20T09:28:54;2.55;;;0.60;;
48881;SDS011;57063;51.406;-2.402;2023-07-20T09:31:34;8.85;;;0.50;;
48881;SDS011;57063;51.406;-2.402;2023-07-20T09:34:00;1.23;;;0.52;;
48881;SDS011;57063;51.406;-2.402;2023-07-20T09:36:28;1.52;;;0.40;;
48881;SDS011;57063;51.406;-2.402;2023-07-20T09:38:54;2.25;;;0.60;;
48881;SDS011;57063;51.406;-2.402;2023-07-20T09:41:20;2.13;;;0.73;;
48881;SDS011;57063;51.406;-2.402;2023-07-20T09:43:46;2.00;;;0.80;;
48881;SDS011;57063;51.406;-2.402;2023-07-20T09:46:12;2.28;;;0.85;;
48881;SDS011;57063;51.406;-2.402;2023-07-20T09:48:38;1.58;;;0.73;;
48881;SDS011;57063;51.406;-2.402;2023-07-20T09:51:04;1.55;;;0.88;;
48881;SDS011;57063;51.406;-2.402;2023-07-20T09:53:32;2.25;;;0.80;;
48881;SDS011;57063;51.406;-2.402;2023-07-20T09:55:58;1.58;;;0.80;;
48881;SDS011;57063;51.406;-2.402;2023-07-20T09:58:25;1.83;;;0.88;;
48881;SDS011;57063;51.406;-2.402;2023-07-20T10:00:51;4.55;;;1.00;;
48881;SDS011;57063;51.406;-2.402;2023-07-20T10:03:19;1.33;;;0.90;;
48881;SDS011;57063;51.406;-2.402;2023-07-20T10:05:47;5.57;;;1.10;;
48881;SDS011;57063;51.406;-2.402;2023-07-20T10:08:23;4.88;;;1.08;;
48881;SDS011;57063;51.406;-2.402;2023-07-20T10:10:49;1.10;;;0.65;;
48881;SDS011;57063;51.406;-2.402;2023-07-20T10:13:25;3.00;;;0.88;;
48881;SDS011;57063;51.406;-2.402;2023-07-20T10:16:02;2.63;;;0.90;;
48881;SDS011;57063;51.406;-2.402;2023-07-20T10:21:06;1.25;;;0.80;;
48881;SDS011;57063;51.406;-2.402;2023-07-20T10:23:32;2.35;;;0.90;;
48881;SDS011;57063;51.406;-2.402;2023-07-20T10:25:59;1.83;;;0.88;;
48881;SDS011;57063;51.406;-2.402;2023-07-20T10:28:31;1.48;;;0.65;;
48881;SDS011;57063;51.406;-2.402;2023-07-20T10:30:59;1.85;;;1.00;;
48881;SDS011;57063;51.406;-2.402;2023-07-20T10:33:26;6.97;;;1.13;;
48881;SDS011;57063;51.406;-2.402;2023-07-20T10:35:56;3.17;;;0.90;;
48881;SDS011;57063;51.406;-2.402;2023-07-20T10:39:13;1.85;;;0.70;;
48881;SDS011;57063;51.406;-2.402;2023-07-20T10:41:33;1.27;;;0.80;;
48881;SDS011;57063;51.406;-2.402;2023-07-20T10:44:01;3.88;;;0.75;;
48881;SDS011;57063;51.406;-2.402;2023-07-20T10:49:05;2.33;;;1.08;;
48881;SDS011;57063;51.406;-2.402;2023-07-20T10:51:47;2.78;;;0.77;;
48881;SDS011;57063;51.406;-2.402;2023-07-20T10:56:46;6.40;;;0.90;;
48881;SDS011;57063;51.406;-2.402;2023-07-20T11:01:46;3.20;;;0.70;;
48881;SDS011;57063;51.406;-2.402;2023-07-20T11:04:12;3.00;;;1.02;;
48881;SDS011;57063;51.406;-2.402;2023-07-20T11:06:38;3.97;;;1.00;;
48881;SDS011;57063;51.406;-2.402;2023-07-20T11:09:12;4.50;;;0.93;;
48881;SDS011;57063;51.406;-2.402;2023-07-20T11:11:47;3.33;;;1.20;;
48881;SDS011;57063;51.406;-2.402;2023-07-20T11:14:23;1.38;;;0.77;;
48881;SDS011;57063;51.406;-2.402;2023-07-20T11:16:50;1.65;;;0.63;;
48881;SDS011;57063;51.406;-2.402;2023-07-20T11:19:17;2.15;;;0.80;;
48881;SDS011;57063;51.406;-2.402;2023-07-20T11:21:53;5.82;;;1.05;;
48881;SDS011;57063;51.406;-2.402;2023-07-20T11:24:22;1.85;;;1.00;;
48881;SDS011;57063;51.406;-2.402;2023-07-20T11:26:51;2.67;;;1.30;;
48881;SDS011;57063;51.406;-2.402;2023-07-20T11:29:18;2.20;;;1.00;;
48881;SDS011;57063;51.406;-2.402;2023-07-20T11:31:46;2.70;;;0.90;;
48881;SDS011;57063;51.406;-2.402;2023-07-20T11:36:41;5.32;;;1.90;;
48881;SDS011;57063;51.406;-2.402;2023-07-20T11:39:11;3.17;;;1.58;;
48881;SDS011;57063;51.406;-2.402;2023-07-20T11:41:38;1.50;;;0.70;;
48881;SDS011;57063;51.406;-2.402;2023-07-20T11:44:05;3.22;;;1.00;;
48881;SDS011;57063;51.406;-2.402;2023-07-20T11:46:31;1.00;;;0.52;;
48881;SDS011;57063;51.406;-2.402;2023-07-20T11:48:58;1.05;;;0.68;;
48881;SDS011;57063;51.406;-2.402;2023-07-20T11:51:25;1.67;;;0.45;;
48881;SDS011;57063;51.406;-2.402;2023-07-20T11:53:55;3.73;;;0.70;;
48881;SDS011;57063;51.406;-2.402;2023-07-20T11:56:22;3.92;;;0.80;;
48881;SDS011;57063;51.406;-2.402;2023-07-20T11:58:48;2.28;;;0.60;;
48881;SDS011;57063;51.406;-2.402;2023-07-20T12:01:13;1.67;;;0.73;;
48881;SDS011;57063;51.406;-2.402;2023-07-20T12:03:39;3.25;;;0.80;;
48881;SDS011;57063;51.406;-2.402;2023-07-20T12:06:07;1.35;;;0.70;;
48881;SDS011;57063;51.406;-2.402;2023-07-20T12:08:33;1.73;;;0.55;;
48881;SDS011;57063;51.406;-2.402;2023-07-20T12:10:59;1.20;;;0.68;;
48881;SDS011;57063;51.406;-2.402;2023-07-20T12:13:35;2.20;;;0.75;;
48881;SDS011;57063;51.406;-2.402;2023-07-20T12:16:06;2.58;;;0.77;;
48881;SDS011;57063;51.406;-2.402;2023-07-20T12:18:34;1.75;;;0.50;;
48881;SDS011;57063;51.406;-2.402;2023-07-20T12:21:01;1.02;;;0.65;;
48881;SDS011;57063;51.406;-2.402;2023-07-20T12:23:26;1.00;;;0.70;;
48881;SDS011;57063;51.406;-2.402;2023-07-20T12:25:52;0.85;;;0.60;;
48881;SDS011;57063;51.406;-2.402;2023-07-20T12:28:20;3.55;;;0.85;;
48881;SDS011;57063;51.406;-2.402;2023-07-20T12:30:45;3.28;;;0.70;;
48881;SDS011;57063;51.406;-2.402;2023-07-20T12:33:12;1.73;;;0.70;;
48881;SDS011;57063;51.406;-2.402;2023-07-20T12:35:41;2.72;;;0.63;;
48881;SDS011;57063;51.406;-2.402;2023-07-20T12:38:08;0.98;;;0.52;;
48881;SDS011;57063;51.406;-2.402;2023-07-20T12:40:33;3.60;;;1.02;;
48881;SDS011;57063;51.406;-2.402;2023-07-20T12:42:59;2.42;;;0.80;;
48881;SDS011;57063;51.406;-2.402;2023-07-20T12:45:25;3.42;;;0.68;;
48881;SDS011;57063;51.406;-2.402;2023-07-20T12:47:50;1.75;;;0.40;;
48881;SDS011;57063;51.406;-2.402;2023-07-20T12:50:16;3.92;;;0.80;;
48881;SDS011;57063;51.406;-2.402;2023-07-20T12:52:41;0.77;;;0.60;;
48881;SDS011;57063;51.406;-2.402;2023-07-20T12:55:07;1.75;;;1.05;;
48881;SDS011;57063;51.406;-2.402;2023-07-20T12:57:34;1.13;;;0.55;;
48881;SDS011;57063;51.406;-2.402;2023-07-20T13:00:00;2.20;;;0.70;;
48881;SDS011;57063;51.406;-2.402;2023-07-20T13:02:29;2.50;;;1.48;;
48881;SDS011;57063;51.406;-2.402;2023-07-20T13:04:55;2.17;;;0.80;;
48881;SDS011;57063;51.406;-2.402;2023-07-20T13:07:28;3.40;;;0.80;;
48881;SDS011;57063;51.406;-2.402;2023-07-20T13:09:59;1.80;;;0.93;;
48881;SDS011;57063;51.406;-2.402;2023-07-20T13:12:25;2.40;;;0.90;;
48881;SDS011;57063;51.406;-2.402;2023-07-20T13:14:54;3.08;;;0.60;;
48881;SDS011;57063;51.406;-2.402;2023-07-20T13:17:20;0.90;;;0.70;;
48881;SDS011;57063;51.406;-2.402;2023-07-20T13:19:46;4.07;;;0.88;;
48881;SDS011;57063;51.406;-2.402;2023-07-20T13:22:12;2.83;;;0.65;;
48881;SDS011;57063;51.406;-2.402;2023-07-20T13:24:38;1.45;;;0.70;;
48881;SDS011;57063;51.406;-2.402;2023-07-20T13:27:04;3.22;;;0.68;;
48881;SDS011;57063;51.406;-2.402;2023-07-20T13:29:30;1.13;;;0.75;;
48881;SDS011;57063;51.406;-2.402;2023-07-20T13:31:55;4.97;;;0.75;;
48881;SDS011;57063;51.406;-2.402;2023-07-20T13:34:20;6.00;;;1.77;;
48881;SDS011;57063;51.406;-2.402;2023-07-20T13:36:45;5.82;;;1.95;;
48881;SDS011;57063;51.406;-2.402;2023-07-20T13:39:11;5.20;;;1.00;;
48881;SDS011;57063;51.406;-2.402;2023-07-20T13:41:36;3.40;;;0.93;;
48881;SDS011;57063;51.406;-2.402;2023-07-20T13:44:02;1.25;;;0.77;;
48881;SDS011;57063;51.406;-2.402;2023-07-20T13:46:27;2.20;;;0.90;;
48881;SDS011;57063;51.406;-2.402;2023-07-20T13:48:52;3.20;;;1.52;;
48881;SDS011;57063;51.406;-2.402;2023-07-20T13:51:18;1.85;;;1.27;;
48881;SDS011;57063;51.406;-2.402;2023-07-20T13:53:45;2.70;;;1.08;;
48881;SDS011;57063;51.406;-2.402;2023-07-20T13:56:11;3.10;;;1.10;;
48881;SDS011;57063;51.406;-2.402;2023-07-20T13:58:36;1.92;;;1.10;;
48881;SDS011;57063;51.406;-2.402;2023-07-20T14:01:02;2.22;;;1.05;;
48881;SDS011;57063;51.406;-2.402;2023-07-20T14:03:27;6.15;;;1.05;;
48881;SDS011;57063;51.406;-2.402;2023-07-20T14:05:52;3.65;;;0.88;;
48881;SDS011;57063;51.406;-2.402;2023-07-20T14:08:18;1.65;;;1.13;;
48881;SDS011;57063;51.406;-2.402;2023-07-20T14:10:43;3.58;;;1.40;;
48881;SDS011;57063;51.406;-2.402;2023-07-20T14:13:08;2.72;;;0.98;;
48881;SDS011;57063;51.406;-2.402;2023-07-20T14:15:34;2.42;;;1.08;;
48881;SDS011;57063;51.406;-2.402;2023-07-20T14:18:00;2.97;;;1.30;;
48881;SDS011;57063;51.406;-2.402;2023-07-20T14:20:25;4.93;;;1.00;;
48881;SDS011;57063;51.406;-2.402;2023-07-20T14:22:51;1.85;;;1.00;;
48881;SDS011;57063;51.406;-2.402;2023-07-20T14:25:16;5.72;;;1.15;;
48881;SDS011;57063;51.406;-2.402;2023-07-20T14:27:41;2.72;;;1.20;;
48881;SDS011;57063;51.406;-2.402;2023-07-20T14:30:07;2.45;;;1.33;;
48881;SDS011;57063;51.406;-2.402;2023-07-20T14:32:34;3.40;;;1.10;;
48881;SDS011;57063;51.406;-2.402;2023-07-20T14:34:59;14.20;;;2.53;;
48881;SDS011;57063;51.406;-2.402;2023-07-20T14:37:24;2.60;;;0.93;;
48881;SDS011;57063;51.406;-2.402;2023-07-20T14:39:50;2.72;;;0.77;;
48881;SDS011;57063;51.406;-2.402;2023-07-20T14:42:15;1.75;;;1.10;;
48881;SDS011;57063;51.406;-2.402;2023-07-20T14:44:41;2.30;;;0.80;;
48881;SDS011;57063;51.406;-2.402;2023-07-20T14:47:06;1.23;;;1.00;;
48881;SDS011;57063;51.406;-2.402;2023-07-20T14:49:32;2.15;;;0.90;;
48881;SDS011;57063;51.406;-2.402;2023-07-20T14:51:57;2.17;;;1.10;;